Create Custom Reports and Graphics: Custom Report

Lodi Weather Stations Latest Observations

Map

15 Minute Data

Lodi West

10 Stations

15 Minute Data | America/Los_Angeles
as of 10/30/20 12:39 AM PDT
Station Date Time Temp (°F) Dew Pt (°F) RH (%) Wind Spd (mph) Wind Dir (°) Wind Gust (mph) Latest Rain (In) Daily Rain (In) Daily Min Temp (°F) Daily Max Temp (°F)
Guard Rd (Lodi WSW) 10/30/20 0030 40.4   2.3 38.1   2.1 91   1 0.1   0.5 E | 92 1.3   0.5 0.00 0.00 32.2   0.5 79.8   1.6
Utter - Wilson 10/30/20 0030 41.3   0.0 38.9   1.5 91   5 1.9   1.8 NE | 46 2.5   2.0 0.00 0.00 34.7   0.2 82.7   1.5
Clarksburg 10/30/20 0030 43.3   0.5 38.8   1.4 84   6 0.4   0.4 ENE | 63 1.2   1.2 0.00 0.00 35.2   1.0 80.9   0.9
Clarksburg-3A2 10/30/20 0030 42.9   0.1 36.0   0.2 76   1 0.8   0.6 E | 88 1.5   0.5 0.00 0.00 35.2   1.4 80.9   2.4
Gorter - Wilson 10/30/20 0030 38.8   0.0 35.7   0.1 89   0 1.1   1.1 ENE | 70 1.7   1.3 0.00 0.00 31.8   0.8 82.3   0.6
Hood 10/30/20 0030 37.4   1.0 34.2   0.9 88   0 0.0   0.0 N | 0 0.0   0.0 0.00 0.02 31.7   0.5 82.5   3.1
Courtland-C3 10/30/20 0030 43.4   4.0 37.8   0.6 80   10 0.6   1.4 NE | 51 1.8   1.9 0.00 0.00 34.3   0.7 82.1   3.2
Pacific Fruit 10/30/20 0030 47.7   3.1 40.6   1.9 76   3 1.4   0.5 NE | 51 2.8   0.2 0.00 0.00 35.2   1.1 82.0   2.1
Ryer Island South 10/30/20 0000 37.4   0.0 32.6   0.9 83   3 0.0   0.0 N | 0 0.0   0.0 0.00 0.00 32.6   2.7 80.4   1.9
Claussen 10/30/20 0030 44.5   0.2 41.2   0.8 88   4 0.6   0.3 SW | 222 1.6   0.3 0.00 0.00 36.6   1.7 80.0   0.8
Max     47.7 41.2 91 1.9 - 2.8 0.00 0.02 36.6 82.7
Avg     41.7 37.4 85 0.7 - 1.5 0.00 - - -
Min     37.4 32.6 76 0.0 - 0.0 0.00 0.00 31.7 79.8

Lodi Central

9 Stations

15 Minute Data | America/Los_Angeles
as of 10/30/20 12:39 AM PDT
Station Date Time Temp (°F) Dew Pt (°F) RH (%) Wind Dir (°) Wind Spd (mph) Wind Gust (mph) Latest Rain (In) Daily Rain (In) Daily Min Temp (°F) Daily Max Temp (°F)
Galt West 10/30/20 0030 45.2   2.6 35.0   0.7 67   5 ESE | 113 0.2   0.1 1.4   0.2 0.00 0.00 34.8   0.1 80.6   2.6
Valley Oak 10/30/20 0030 39.6   0.2 36.4   0.1 88   0 NE | 38 0.8   0.4 1.8   0.4 0.00 0.00 34.4   0.8 80.7   0.5
Thornton 10/30/20 0030 42.1   1.3 35.3   2.0 76   2 ENE | 74 1.1   1.1 3.8   1.7 0.00 0.00 34.6   1.8 78.9   2.0
Kost Rd 10/30/20 0030 44.0   1.0 35.1   1.3 71   1 ENE | 73 0.6   0.0 2.1   0.5 0.00 0.00 35.1   0.6 80.8   1.5
DeVries Road-North 10/30/20 0030 44.4   1.6 38.1   0.7 78   3 ENE | 78 1.1   0.3 2.5   1.0 0.00 0.00 35.2   0.6 81.7   1.1
Lodi (LangeTwins) 10/30/20 0030 43.8   0.9 35.8   2.1 73   4 N | 0 0.0   0.0 0.0   0.0 0.00 0.00 36.2   0.8 82.0   2.4
Acampo 10/30/20 0030 41.2   1.3 36.4   2.0 83   2 N | 0 0.0   0.0 0.0   0.0 0.00 0.00 34.6   0.6 81.4   3.2
Acampo (Woodbridge) 10/30/20 0030 47.7   2.3 40.1   1.7 75   2 E | 98 1.6   1.6 3.1   3.1 0.00 0.00 37.2   0.2 79.8   0.6
Lodi West 10/30/20 0030 45.2   0.4 39.8   0.5 81   0 NE | 43 0.0   0.0 0.4   0.4 0.00 0.00 37.4   0.1 81.9   4.6
Max     47.7 40.1 88 - 1.6 3.8 0.00 0.00 37.4 82.0
Avg     43.7 36.9 77 - 0.6 1.7 0.00 - - -
Min     39.6 35.0 67 - 0.0 0.0 0.00 0.00 34.4 78.9

Lodi South

18 Stations

15 Minute Data | America/Los_Angeles
as of 10/30/20 12:39 AM PDT
Station Date Time Temp (°F) Dew Pt (°F) RH (%) Wind Spd (mph) Wind Dir (°) Wind Gust (mph) Latest Rain (In) Daily Rain (In) Daily Min Temp (°F) Daily Max Temp (°F)
Borden Hills 10/30/20 0030 48.8   1.2 33.2   1.9 54   2 3.8   0.3 ENE | 67 4.3   0.1 0.00 0.00 40.4   2.9 82.2   0.2
Collegeville 10/30/20 0030 42.1   0.7 38.8   1.4 88   2 0.2   0.2 WSW | 244 0.9   0.9 0.00 0.00 34.2   1.4 79.5   0.2
Galt-East 10/30/20 0030 44.7   0.9 35.2   2.0 69   3 0.2   0.7 NE | 44 1.3   0.5 0.00 0.00 36.7   0.2 79.7   1.2
Escalon 10/30/20 0030 43.2   0.4 41.0   1.1 92   2 0.0   0.0 N | 0 0.0   0.4 0.00 0.00 37.0   0.4 80.4   0.5
Victor - N (Katusha) 10/30/20 0030 43.3   0.5 36.3   1.7 76   4 0.0   0.0 N | 0 0.0   0.0 0.00 0.00 35.3   1.9 79.9   2.0
Teresi-Alpine Rd (East Lodi) 10/30/20 0030 43.3   0.5 38.7   0.9 84   1 0.3   0.1 ESE | 103 1.3   0.1 0.00 0.00 35.9   0.3 82.4   1.8
Gilbeau Ranch 10/30/20 0030 45.1   2.7 34.0   0.9 65   9 0.7   0.3 ENE | 59 1.8   0.2 0.00 0.00 34.6   1.5 80.7   1.2
Linden 10/30/20 0030 39.6   0.5 38.2   0.5 95   0 0.2   0.0 WNW | 300 1.0   0.3 0.00 0.00 32.4   0.1 81.0   2.2
Live Oak 10/30/20 0030 42.1   2.0 37.5   0.9 84   4 0.9   0.2 NE | 50 1.8   0.3 0.00 0.00 34.2   0.3 80.7   0.3
Lockeford 10/30/20 0030 43.7   1.1 36.3   0.6 75   1 0.0   0.9 N | 0 0.0   2.9 0.00 0.00 35.8   0.8 79.3   1.7
Lone Oak-L28 10/30/20 0030 41.1   2.6 37.3   1.0 86   5 1.1   0.8 ESE | 112 1.8   0.6 0.00 0.00 32.8   2.2 80.8   1.4
Colony 1 10/30/20 0030 47.6   2.5 35.2   0.2 62   7 1.4   1.2 ENE | 78 2.7   1.3 0.00 0.00 37.5   1.3 81.8   2.2
Colony 2 10/30/20 0030 43.9   1.0 34.9   0.9 70   0 0.5   0.2 ESE | 103 2.5   1.1 0.00 0.00 36.2   0.5 83.0   3.9
Sheldon 10/30/20 0030 40.0   1.1 35.4   0.7 84   6 0.0   0.1 N | 0 0.0   1.7 0.00 0.00 33.6   0.7 82.4   2.9
Sierra Loma-L27 10/30/20 0030 48.4   1.0 33.8   1.5 57   1 1.2   1.1 ENE | 62 3.5   2.6 0.00 0.00 38.3   1.5 81.6   1.5
Simmerhorn 10/30/20 0030 51.0   6.9 30.1   1.3 44   16 - - - - - 37.1   0.8 80.0   0.8
Sloughhouse 10/30/20 0000 38.9   0.4 30.4   0.6 71   0 0.0   0.0 N | 0 0.0   0.0 0.00 0.00 32.0   0.3 81.2   0.7
5 Wells 10/30/20 0030 44.9   3.2 31.6   2.6 59   1 2.3   2.3 E | 84 3.3   3.3 0.00 0.00 35.2   1.5 80.2   0.1
Max     51.0 41.0 95 3.8 - 4.3 0.00 0.00 40.4 83.0
Avg     44.0 35.4 73 0.8 - 1.5 0.00 - - -
Min     38.9 30.1 44 0.0 - 0.0 0.00 0.00 32.0 79.3

Latest Observations

Map

Hourly Data